Lester, Alabama
Current Conditions -  °F | °C
As of 6:53 AM on Friday 28 Nov 2014 (Local Time) from KDCU Reporting Station
Haze Haze  
Wind Chill: 25°   Ceiling: Unl
Heat Index: 25°   Visibility: 6mi
Dew Point: 22°   Wind: 0mph
Humidity: 88%   Direction: NA
Pressure: 30.46"   Gusts: NA
Location:  34.99°N, 87.15°W
Report Text: KDCU 281253Z AUTO 00000KT 6SM BR CLR M04/M06 A3046 RMK AO2 SLP320 T10391056 $
Loading
Personal Weather Stations






























Interactive Weather Map New forecast layout! Learn more

10-Day Weather Forecast

Advertisements
Track Severe Weather on mobile